createdAt,value
2022-12-19T00:01:58.672Z,78.90
2022-12-19T00:04:27.278Z,78.85
2022-12-19T00:06:57.939Z,78.74
2022-12-19T00:09:27.398Z,78.66
2022-12-19T00:11:55.668Z,78.66
2022-12-19T00:14:23.852Z,78.76
2022-12-19T00:16:52.202Z,79.62
2022-12-19T00:19:20.388Z,79.53
2022-12-19T00:21:48.613Z,79.49
2022-12-19T00:24:21.240Z,79.41
2022-12-19T00:26:50.202Z,79.69
2022-12-19T00:29:18.492Z,79.18
2022-12-19T00:31:46.860Z,78.89
2022-12-19T00:34:16.058Z,78.95
2022-12-19T00:36:44.436Z,79.16
2022-12-19T00:39:12.447Z,79.65
2022-12-19T00:41:41.621Z,79.77
2022-12-19T00:44:14.613Z,79.92
2022-12-19T00:46:47.399Z,79.92
2022-12-19T00:49:21.590Z,79.16
2022-12-19T00:51:49.963Z,79.35
2022-12-19T00:54:18.137Z,79.57
2022-12-19T00:56:46.918Z,79.31
2022-12-19T00:59:14.947Z,80.06
2022-12-19T01:01:46.514Z,80.15
2022-12-19T01:04:33.456Z,79.63
2022-12-19T01:07:04.315Z,79.25
2022-12-19T01:09:34.616Z,80.77
2022-12-19T01:12:06.645Z,79.83
2022-12-19T01:14:35.607Z,80.09
2022-12-19T01:17:03.861Z,79.89
2022-12-19T01:19:31.966Z,79.49
2022-12-19T01:22:01.676Z,79.71
2022-12-19T01:24:30.445Z,79.08
2022-12-19T01:26:58.529Z,79.76
2022-12-19T01:29:28.861Z,79.42
2022-12-19T01:31:59.087Z,79.62
2022-12-19T01:34:28.290Z,79.72
2022-12-19T01:36:56.911Z,79.78
2022-12-19T01:39:25.163Z,79.21
2022-12-19T01:41:56.054Z,80.07
2022-12-19T01:44:25.127Z,79.97
2022-12-19T01:46:56.756Z,79.86
2022-12-19T01:49:38.046Z,79.67
2022-12-19T01:52:10.321Z,79.92
2022-12-19T01:54:42.841Z,79.07
2022-12-19T01:57:14.339Z,79.09
2022-12-19T01:59:54.088Z,79.69
2022-12-19T02:02:31.499Z,79.14
2022-12-19T02:05:00.696Z,79.86
2022-12-19T02:07:29.540Z,79.91
2022-12-19T02:09:58.783Z,79.54
2022-12-19T02:12:30.281Z,79.70
2022-12-19T02:15:02.945Z,79.64
2022-12-19T02:17:31.524Z,79.64
2022-12-19T02:20:05.381Z,79.02
2022-12-19T02:22:52.446Z,79.08
2022-12-19T02:25:39.274Z,80.27
2022-12-19T02:28:25.971Z,80.43
2022-12-19T02:31:17.705Z,80.23
2022-12-19T02:33:56.241Z,79.81
2022-12-19T02:36:48.383Z,79.54
2022-12-19T02:39:37.179Z,79.28
2022-12-19T02:42:08.316Z,79.07
2022-12-19T02:44:51.700Z,80.22
2022-12-19T02:47:21.890Z,79.57
2022-12-19T02:49:50.185Z,79.27
2022-12-19T02:52:21.440Z,80.09
2022-12-19T02:54:52.285Z,79.97
2022-12-19T02:57:38.002Z,79.31
2022-12-19T03:00:14.867Z,79.99
2022-12-19T03:03:05.881Z,79.51
2022-12-19T03:05:57.972Z,79.79
2022-12-19T03:08:38.989Z,79.72
2022-12-19T03:11:14.225Z,79.39
2022-12-19T03:13:48.508Z,80.08
2022-12-19T03:16:16.690Z,80.30
2022-12-19T03:18:45.710Z,79.85
2022-12-19T03:21:37.242Z,80.24
2022-12-19T03:24:09.524Z,79.73
2022-12-19T03:27:02.688Z,80.08
2022-12-19T03:29:33.100Z,79.81
2022-12-19T03:32:04.371Z,79.79
2022-12-19T03:34:42.526Z,79.44
2022-12-19T03:37:17.073Z,79.93
2022-12-19T03:39:48.924Z,80.55
2022-12-19T03:42:19.241Z,80.25
2022-12-19T03:44:50.313Z,79.99
2022-12-19T03:47:23.989Z,80.49
2022-12-19T03:49:53.153Z,80.62
2022-12-19T03:52:30.337Z,80.68
2022-12-19T03:55:25.297Z,80.31
2022-12-19T03:58:13.935Z,79.77
2022-12-19T04:00:46.404Z,80.41
2022-12-19T04:03:17.867Z,80.15
2022-12-19T04:05:48.220Z,79.92
2022-12-19T04:08:17.371Z,80.12
2022-12-19T04:10:52.119Z,80.22
2022-12-19T04:13:32.378Z,80.37
2022-12-19T04:16:18.356Z,80.49
2022-12-19T04:18:52.936Z,80.51
2022-12-19T04:21:51.405Z,80.38
2022-12-19T04:24:26.371Z,80.52
2022-12-19T04:26:57.374Z,80.78
2022-12-19T04:29:28.332Z,80.97
2022-12-19T04:31:57.086Z,80.87
2022-12-19T04:34:25.685Z,80.88
2022-12-19T04:36:54.015Z,81.20
2022-12-19T04:39:22.461Z,80.77
2022-12-19T04:41:51.371Z,80.75
2022-12-19T04:44:19.599Z,81.10
2022-12-19T04:46:47.935Z,81.21
2022-12-19T04:49:16.420Z,81.38
2022-12-19T04:51:44.525Z,81.59
2022-12-19T04:54:12.699Z,81.53
2022-12-19T04:56:41.220Z,81.34
2022-12-19T04:59:13.363Z,81.46
2022-12-19T05:01:41.859Z,80.98
2022-12-19T05:04:10.334Z,81.05
2022-12-19T05:06:38.621Z,81.60
2022-12-19T05:09:07.295Z,81.07
2022-12-19T05:11:35.423Z,80.77
2022-12-19T05:14:04.047Z,80.97
2022-12-19T05:16:32.440Z,81.04
2022-12-19T05:19:00.571Z,81.45
2022-12-19T05:21:28.685Z,81.40
2022-12-19T05:23:56.980Z,81.47
2022-12-19T05:26:27.761Z,81.36
2022-12-19T05:28:55.837Z,80.98
2022-12-19T05:31:24.358Z,81.09
2022-12-19T05:33:52.605Z,81.36
2022-12-19T05:36:21.975Z,81.41
2022-12-19T05:38:50.372Z,81.50
2022-12-19T05:41:20.841Z,81.53
2022-12-19T05:43:54.486Z,81.15
2022-12-19T05:46:23.907Z,81.74
2022-12-19T05:48:53.337Z,81.40
2022-12-19T05:51:22.190Z,81.53
2022-12-19T05:53:50.221Z,82.10
2022-12-19T05:56:21.527Z,82.06
2022-12-19T05:58:50.443Z,81.70
2022-12-19T06:01:25.221Z,81.58
2022-12-19T06:03:54.991Z,81.78
2022-12-19T06:06:26.429Z,82.01
2022-12-19T06:08:56.332Z,82.44
2022-12-19T06:11:26.225Z,82.54
2022-12-19T06:13:54.950Z,82.87
2022-12-19T06:16:23.656Z,82.39
2022-12-19T06:18:52.034Z,81.88
2022-12-19T06:21:22.293Z,82.11
2022-12-19T06:23:50.995Z,82.06
2022-12-19T06:26:21.127Z,82.49
2022-12-19T06:28:51.080Z,82.49
2022-12-19T06:31:21.307Z,82.48
2022-12-19T06:33:50.087Z,82.85
2022-12-19T06:36:24.445Z,83.43
2022-12-19T06:38:55.119Z,83.24
2022-12-19T06:41:23.954Z,82.74
2022-12-19T06:43:53.869Z,82.61
2022-12-19T06:46:22.349Z,82.85
2022-12-19T06:48:51.808Z,82.58
2022-12-19T06:51:20.475Z,82.41
2022-12-19T06:53:49.611Z,82.76
2022-12-19T06:56:18.434Z,82.49
2022-12-19T06:58:47.529Z,82.69
2022-12-19T07:01:34.786Z,82.93
2022-12-19T07:04:03.646Z,82.76
2022-12-19T07:06:31.861Z,82.93
2022-12-19T07:08:59.999Z,83.10
2022-12-19T07:11:28.259Z,83.14
2022-12-19T07:13:57.137Z,83.08
2022-12-19T07:16:26.752Z,82.97
2022-12-19T07:18:55.325Z,82.65
2022-12-19T07:21:23.450Z,82.87
2022-12-19T07:23:51.661Z,82.55
2022-12-19T07:26:20.008Z,82.24
2022-12-19T07:28:48.110Z,82.25
2022-12-19T07:31:16.299Z,82.07
2022-12-19T07:33:44.499Z,81.99
2022-12-19T07:36:13.481Z,81.85
2022-12-19T07:38:42.308Z,81.62
2022-12-19T07:41:10.779Z,81.72
2022-12-19T07:43:40.229Z,81.55
2022-12-19T07:46:08.825Z,81.60
2022-12-19T07:48:37.347Z,81.04
2022-12-19T07:51:06.262Z,80.23
2022-12-19T07:53:34.454Z,78.54
2022-12-19T07:56:02.724Z,76.11
2022-12-19T07:58:30.873Z,72.73
2022-12-19T08:01:00.683Z,68.65
2022-12-19T08:03:29.354Z,64.53
2022-12-19T08:06:01.803Z,60.59
2022-12-19T08:08:30.552Z,57.24
2022-12-19T08:11:19.853Z,54.78
2022-12-19T08:13:48.794Z,53.49
2022-12-19T08:16:17.070Z,52.41
2022-12-19T08:18:45.829Z,51.25
2022-12-19T08:21:14.609Z,50.71
2022-12-19T08:23:42.872Z,49.77
2022-12-19T08:26:13.545Z,49.52
2022-12-19T08:28:41.828Z,47.87
2022-12-19T08:31:13.029Z,45.58
2022-12-19T08:33:42.402Z,43.31
2022-12-19T08:36:13.333Z,40.99
2022-12-19T08:38:42.070Z,38.85
2022-12-19T08:41:11.177Z,37.04
2022-12-19T08:43:39.843Z,35.57
2022-12-19T08:46:10.124Z,33.59
2022-12-19T08:48:38.575Z,32.50
2022-12-19T08:51:08.958Z,31.98
2022-12-19T08:53:39.462Z,31.40
2022-12-19T08:56:17.264Z,30.61
2022-12-19T08:58:46.218Z,29.96
2022-12-19T09:01:17.785Z,29.20
2022-12-19T09:04:50.252Z,28.83
2022-12-19T09:06:35.929Z,28.46
2022-12-19T09:09:05.553Z,27.85
2022-12-19T09:11:33.770Z,26.95
2022-12-19T09:14:04.464Z,26.28
2022-12-19T09:16:32.980Z,25.73
2022-12-19T09:19:01.142Z,25.47
2022-12-19T09:21:30.011Z,25.34
2022-12-19T09:24:07.025Z,24.68
2022-12-19T09:26:38.191Z,24.39
2022-12-19T09:29:19.657Z,24.08
2022-12-19T09:31:55.257Z,24.11
2022-12-19T09:34:37.089Z,23.85
2022-12-19T09:37:15.170Z,23.38
2022-12-19T09:39:47.260Z,23.34
2022-12-19T09:42:41.455Z,23.02
2022-12-19T09:45:58.362Z,22.95
2022-12-19T09:48:26.590Z,23.03
2022-12-19T09:51:11.173Z,23.18
2022-12-19T09:54:01.754Z,23.92
2022-12-19T09:56:45.363Z,24.63
2022-12-19T09:59:39.722Z,25.45
2022-12-19T10:02:37.883Z,25.59
2022-12-19T10:05:27.864Z,25.37
2022-12-19T10:08:08.390Z,25.18
2022-12-19T10:12:38.769Z,25.23
2022-12-19T10:13:45.225Z,24.63
2022-12-19T10:16:36.611Z,24.64
2022-12-19T10:19:15.195Z,25.83
2022-12-19T10:22:18.194Z,26.78
2022-12-19T10:25:21.709Z,25.93
2022-12-19T10:27:59.708Z,25.18
2022-12-19T10:30:32.424Z,24.85
2022-12-19T10:33:28.983Z,24.58
2022-12-19T10:36:01.982Z,24.32
2022-12-19T10:38:51.028Z,24.42
2022-12-19T10:41:29.819Z,24.66
2022-12-19T10:44:09.172Z,24.37
2022-12-19T10:46:47.136Z,24.06
2022-12-19T10:49:17.893Z,24.28
2022-12-19T10:52:07.986Z,24.52
2022-12-19T10:54:36.320Z,24.52
2022-12-19T10:57:22.704Z,25.14
2022-12-19T11:00:19.223Z,26.53
2022-12-19T11:02:50.898Z,28.45
2022-12-19T11:05:31.315Z,29.34
2022-12-19T11:08:11.275Z,28.73
2022-12-19T11:11:34.378Z,27.85
2022-12-19T11:18:23.032Z,26.59
2022-12-19T11:21:41.075Z,26.21
2022-12-19T11:29:24.991Z,26.78
2022-12-19T11:29:38.157Z,27.15
2022-12-19T11:30:47.445Z,30.28
2022-12-19T11:30:47.446Z,28.59
2022-12-19T11:34:25.163Z,33.31
2022-12-19T11:37:18.462Z,33.38
2022-12-19T11:40:15.729Z,32.65
2022-12-19T11:43:41.955Z,31.31
2022-12-19T11:46:24.204Z,30.24
2022-12-19T11:49:02.594Z,30.29
2022-12-19T11:51:48.758Z,30.53
2022-12-19T11:54:35.019Z,31.08
2022-12-19T11:57:03.927Z,31.98
2022-12-19T11:59:37.116Z,33.22
2022-12-19T12:02:30.971Z,34.65
2022-12-19T12:05:09.383Z,36.06
2022-12-19T12:08:40.526Z,37.35
2022-12-19T12:15:11.283Z,38.80
2022-12-19T12:21:50.076Z,39.80
2022-12-19T12:28:41.532Z,43.54
2022-12-19T12:30:11.680Z,40.72
2022-12-19T12:31:05.201Z,41.96
2022-12-19T12:31:38.593Z,44.86
2022-12-19T12:31:49.077Z,45.78
2022-12-19T12:35:38.189Z,48.12
2022-12-19T12:35:48.613Z,46.89
2022-12-19T12:38:25.427Z,48.45
2022-12-19T12:41:16.795Z,49.73
2022-12-19T12:43:47.898Z,51.14
2022-12-19T12:46:23.494Z,51.77
2022-12-19T12:48:58.978Z,52.91
2022-12-19T12:51:28.160Z,53.89
2022-12-19T12:54:06.208Z,54.01
2022-12-19T12:56:36.872Z,54.71
2022-12-19T12:59:20.785Z,55.37
2022-12-19T13:02:17.858Z,55.66
2022-12-19T13:05:00.284Z,55.80
2022-12-19T13:07:51.442Z,56.34
2022-12-19T13:10:29.889Z,56.77
2022-12-19T13:13:15.832Z,56.91
2022-12-19T13:15:46.535Z,57.59
2022-12-19T13:18:35.287Z,57.41
2022-12-19T13:21:05.824Z,57.75
2022-12-19T13:23:36.876Z,58.11
2022-12-19T13:26:19.956Z,57.38
2022-12-19T13:28:48.731Z,57.33
2022-12-19T13:31:22.398Z,57.98
2022-12-19T13:33:57.132Z,58.11
2022-12-19T13:39:54.403Z,57.50
2022-12-19T13:40:14.159Z,56.57
2022-12-19T13:43:10.599Z,56.23
2022-12-19T13:45:48.179Z,56.87
2022-12-19T13:48:26.661Z,57.41
2022-12-19T13:50:57.008Z,57.74
2022-12-19T13:53:30.336Z,57.67
2022-12-19T13:56:06.255Z,57.66
2022-12-19T13:58:45.245Z,58.61
2022-12-19T14:01:30.873Z,58.81
2022-12-19T14:04:08.730Z,58.17
2022-12-19T14:06:46.980Z,58.54
2022-12-19T14:11:29.368Z,58.41
2022-12-19T14:13:53.335Z,58.41
2022-12-19T14:15:35.204Z,58.46
2022-12-19T14:18:42.713Z,58.31
2022-12-19T14:22:07.036Z,57.97
2022-12-19T14:24:20.067Z,57.55
2022-12-19T14:28:24.083Z,57.68
2022-12-19T14:30:27.745Z,57.68
2022-12-19T14:33:46.308Z,57.39
2022-12-19T14:36:11.293Z,57.50
2022-12-19T14:39:27.112Z,56.83
2022-12-19T14:41:27.665Z,56.85
2022-12-19T14:50:25.593Z,56.54
2022-12-19T14:52:35.337Z,56.02
2022-12-19T14:54:05.506Z,55.31
2022-12-19T14:54:55.200Z,55.60
2022-12-19T14:56:11.484Z,56.77
2022-12-19T14:58:53.010Z,58.34
2022-12-19T15:01:24.978Z,59.75
2022-12-19T15:04:51.894Z,60.42
2022-12-19T15:07:07.984Z,60.76
2022-12-19T15:11:08.247Z,61.66
2022-12-19T15:14:47.322Z,62.96
2022-12-19T15:15:40.385Z,62.56
2022-12-19T15:18:33.167Z,62.66
2022-12-19T15:21:09.225Z,62.54
2022-12-19T15:23:37.221Z,62.75
2022-12-19T15:26:11.376Z,62.85
2022-12-19T15:28:43.748Z,63.05
2022-12-19T15:31:18.237Z,62.88
2022-12-19T15:34:14.899Z,62.98
2022-12-19T15:36:35.579Z,63.32
2022-12-19T15:39:04.600Z,63.39
2022-12-19T15:41:32.669Z,63.39
2022-12-19T15:44:07.559Z,63.58
2022-12-19T15:46:35.840Z,63.99
2022-12-19T15:49:04.066Z,64.30
2022-12-19T15:51:32.277Z,64.53
2022-12-19T15:54:30.180Z,64.57
2022-12-19T15:56:53.095Z,64.48
2022-12-19T15:59:37.862Z,64.65
2022-12-19T16:02:18.514Z,64.99
2022-12-19T16:04:50.178Z,65.25
2022-12-19T16:07:21.755Z,65.66
2022-12-19T16:09:50.611Z,65.88
2022-12-19T16:12:25.109Z,66.21
2022-12-19T16:14:59.926Z,66.35
2022-12-19T16:17:32.116Z,66.75
2022-12-19T16:20:00.322Z,66.90
2022-12-19T16:22:29.795Z,67.11
2022-12-19T16:24:58.113Z,67.18
2022-12-19T16:27:31.644Z,67.39
2022-12-19T16:30:18.557Z,68.07
2022-12-19T16:32:50.809Z,69.31
2022-12-19T16:35:40.164Z,69.50
2022-12-19T16:38:09.743Z,69.48
2022-12-19T16:40:38.430Z,69.90
2022-12-19T16:43:19.438Z,70.09
2022-12-19T16:45:48.039Z,70.67
2022-12-19T16:48:26.766Z,71.24
2022-12-19T16:50:57.856Z,72.01
2022-12-19T16:53:26.256Z,72.83
2022-12-19T16:55:56.787Z,73.52
2022-12-19T16:58:27.503Z,73.96
2022-12-19T17:00:56.428Z,75.22
2022-12-19T17:03:30.713Z,75.73
2022-12-19T17:05:59.272Z,75.69
2022-12-19T17:08:27.672Z,75.73
2022-12-19T17:10:56.417Z,76.36
2022-12-19T17:13:25.442Z,76.33
2022-12-19T17:15:57.092Z,76.85
2022-12-19T17:18:30.944Z,76.84
2022-12-19T17:20:59.561Z,77.22
2022-12-19T17:23:30.113Z,77.89
2022-12-19T17:25:59.260Z,78.47
2022-12-19T17:28:29.210Z,78.61
2022-12-19T17:31:02.618Z,78.56
2022-12-19T17:33:36.129Z,78.54
2022-12-19T17:36:06.438Z,78.67
2022-12-19T17:38:35.110Z,78.56
2022-12-19T17:41:04.225Z,78.64
2022-12-19T17:43:32.789Z,78.59
2022-12-19T17:46:01.333Z,79.00
2022-12-19T17:48:32.350Z,79.06
2022-12-19T17:51:01.432Z,79.71
2022-12-19T17:53:29.726Z,80.31
2022-12-19T17:55:57.957Z,80.65
2022-12-19T17:58:26.274Z,80.45
2022-12-19T18:00:54.574Z,80.33
2022-12-19T18:03:26.919Z,79.94
2022-12-19T18:05:56.303Z,79.87
2022-12-19T18:08:28.652Z,79.60
2022-12-19T18:11:01.470Z,79.38
2022-12-19T18:13:31.580Z,79.42
2022-12-19T18:16:02.454Z,79.47
2022-12-19T18:18:34.949Z,79.32
2022-12-19T18:21:04.389Z,79.32
2022-12-19T18:23:33.466Z,79.25
2022-12-19T18:26:02.812Z,79.11
2022-12-19T18:28:31.414Z,79.17
2022-12-19T18:31:03.285Z,79.60
2022-12-19T18:33:42.089Z,79.65
2022-12-19T18:36:19.692Z,79.62
2022-12-19T18:38:50.106Z,79.75
2022-12-19T18:41:19.398Z,79.85
2022-12-19T18:43:48.523Z,79.94
2022-12-19T18:46:22.747Z,80.19
2022-12-19T18:48:51.248Z,80.04
2022-12-19T18:51:22.285Z,80.30
2022-12-19T18:53:52.237Z,80.30
2022-12-19T18:56:20.623Z,80.06
2022-12-19T18:58:48.768Z,80.01
2022-12-19T19:01:19.580Z,80.37
2022-12-19T19:03:56.957Z,80.53
2022-12-19T19:06:32.952Z,80.14
2022-12-19T19:09:04.198Z,80.64
2022-12-19T19:11:32.381Z,80.58
2022-12-19T19:14:00.508Z,80.58
2022-12-19T19:16:28.892Z,80.61
2022-12-19T19:18:58.935Z,80.44
2022-12-19T19:21:32.263Z,80.68
2022-12-19T19:24:06.157Z,80.50
2022-12-19T19:26:34.362Z,80.68
2022-12-19T19:29:02.570Z,80.67
2022-12-19T19:31:33.779Z,80.89
2022-12-19T19:34:12.741Z,80.74
2022-12-19T19:36:45.851Z,80.89
2022-12-19T19:39:14.156Z,80.74
2022-12-19T19:41:42.261Z,80.68
2022-12-19T19:44:10.513Z,80.52
2022-12-19T19:46:38.789Z,80.95
2022-12-19T19:49:07.801Z,81.45
2022-12-19T19:51:36.854Z,80.90
2022-12-19T19:54:05.242Z,80.49
2022-12-19T19:56:33.637Z,80.54
2022-12-19T19:59:02.090Z,80.50
2022-12-19T20:01:30.418Z,80.76
2022-12-19T20:03:58.818Z,80.84
2022-12-19T20:06:27.405Z,80.53
2022-12-19T20:08:55.761Z,80.54
2022-12-19T20:11:24.846Z,79.74
2022-12-19T20:13:52.775Z,79.93
2022-12-19T20:16:20.973Z,80.07
2022-12-19T20:18:51.728Z,79.89
2022-12-19T20:21:21.088Z,80.18
2022-12-19T20:23:49.210Z,79.96
2022-12-19T20:26:17.853Z,80.08
2022-12-19T20:28:49.560Z,79.63
2022-12-19T20:31:20.827Z,79.88
2022-12-19T20:33:49.410Z,79.16
2022-12-19T20:36:17.944Z,79.77
2022-12-19T20:38:46.567Z,80.50
2022-12-19T20:41:16.442Z,80.54
2022-12-19T20:43:45.146Z,80.43
2022-12-19T20:46:16.406Z,80.40
2022-12-19T20:48:45.366Z,79.93
2022-12-19T20:51:15.968Z,80.02
2022-12-19T20:53:45.549Z,80.06
2022-12-19T20:56:16.961Z,79.74
2022-12-19T20:58:46.290Z,79.89
2022-12-19T21:01:21.085Z,80.02
2022-12-19T21:03:50.440Z,79.97
2022-12-19T21:06:21.118Z,79.91
2022-12-19T21:08:53.535Z,79.67
2022-12-19T21:11:22.619Z,80.29
2022-12-19T21:13:50.911Z,80.56
2022-12-19T21:16:21.176Z,79.83
2022-12-19T21:18:51.034Z,79.96
2022-12-19T21:21:23.649Z,79.90
2022-12-19T21:23:52.743Z,80.19
2022-12-19T21:26:23.113Z,79.56
2022-12-19T21:28:51.347Z,80.27
2022-12-19T21:31:26.709Z,79.56
2022-12-19T21:33:56.928Z,79.64
2022-12-19T21:36:26.640Z,79.85
2022-12-19T21:38:58.126Z,79.66
2022-12-19T21:41:27.174Z,79.79
2022-12-19T21:43:56.284Z,80.05
2022-12-19T21:46:27.984Z,80.38
2022-12-19T21:48:58.934Z,79.67
2022-12-19T21:51:29.943Z,79.96
2022-12-19T21:54:02.280Z,79.89
2022-12-19T21:56:35.799Z,80.13
2022-12-19T21:59:06.376Z,79.68
2022-12-19T22:01:34.679Z,79.50
2022-12-19T22:04:10.703Z,79.91
2022-12-19T22:06:39.935Z,79.80
2022-12-19T22:09:12.192Z,79.73
2022-12-19T22:11:40.391Z,79.81
2022-12-19T22:14:08.805Z,79.64
2022-12-19T22:16:37.381Z,79.99
2022-12-19T22:19:06.769Z,79.94
2022-12-19T22:21:35.246Z,79.90
2022-12-19T22:24:04.137Z,80.15
2022-12-19T22:26:32.957Z,80.29
2022-12-19T22:29:01.463Z,80.02
2022-12-19T22:31:32.563Z,80.04
2022-12-19T22:34:03.681Z,80.40
2022-12-19T22:36:36.385Z,80.08
2022-12-19T22:39:06.615Z,79.74
2022-12-19T22:41:36.214Z,80.26
2022-12-19T22:44:06.405Z,80.30
2022-12-19T22:46:38.037Z,80.03
2022-12-19T22:49:08.941Z,80.38
2022-12-19T22:51:37.563Z,80.37
2022-12-19T22:54:07.364Z,80.14
2022-12-19T22:56:36.596Z,80.57
2022-12-19T22:59:07.394Z,80.21
2022-12-19T23:01:42.554Z,80.34
2022-12-19T23:04:15.359Z,80.11
2022-12-19T23:06:44.547Z,79.79
2022-12-19T23:09:16.022Z,80.07
2022-12-19T23:11:47.245Z,80.34
2022-12-19T23:14:18.466Z,80.29
2022-12-19T23:16:48.124Z,80.05
2022-12-19T23:19:18.049Z,79.65
2022-12-19T23:21:46.275Z,79.86
2022-12-19T23:24:14.703Z,79.90
2022-12-19T23:26:42.976Z,79.66
2022-12-19T23:29:14.014Z,79.77
2022-12-19T23:31:44.926Z,79.65
2022-12-19T23:34:14.239Z,79.82
2022-12-19T23:39:30.414Z,80.19
2022-12-19T23:41:58.534Z,80.46
2022-12-19T23:44:27.025Z,79.98
2022-12-19T23:47:02.385Z,79.76
2022-12-19T23:49:32.955Z,80.22
2022-12-19T23:52:01.504Z,79.93
2022-12-19T23:54:29.739Z,80.01
2022-12-19T23:56:57.831Z,80.04
2022-12-19T23:59:26.039Z,80.74
